sensor_id;sensor_type;location;lat;lon;timestamp;P1;durP1;ratioP1;P2;durP2;ratioP2
60098;SDS011;45976;49.400;8.682;2022-07-23T00:00:51;11.83;;;4.90;;
60098;SDS011;45976;49.400;8.682;2022-07-23T00:01:51;6.05;;;4.30;;
60098;SDS011;45976;49.400;8.682;2022-07-23T00:02:52;8.70;;;4.93;;
60098;SDS011;45976;49.400;8.682;2022-07-23T00:03:53;6.93;;;5.15;;
60098;SDS011;45976;49.400;8.682;2022-07-23T00:05:55;8.70;;;4.72;;
60098;SDS011;45976;49.400;8.682;2022-07-23T00:06:55;7.10;;;4.97;;
60098;SDS011;45976;49.400;8.682;2022-07-23T00:07:56;7.77;;;4.70;;
60098;SDS011;45976;49.400;8.682;2022-07-23T00:08:56;9.15;;;5.35;;
60098;SDS011;45976;49.400;8.682;2022-07-23T00:09:57;6.93;;;4.90;;
60098;SDS011;45976;49.400;8.682;2022-07-23T00:10:58;7.15;;;5.45;;
60098;SDS011;45976;49.400;8.682;2022-07-23T00:11:59;8.20;;;4.00;;
60098;SDS011;45976;49.400;8.682;2022-07-23T00:12:59;9.98;;;4.35;;
60098;SDS011;45976;49.400;8.682;2022-07-23T00:14:00;6.70;;;4.80;;
60098;SDS011;45976;49.400;8.682;2022-07-23T00:15:00;7.27;;;4.30;;
60098;SDS011;45976;49.400;8.682;2022-07-23T00:16:02;8.00;;;4.63;;
60098;SDS011;45976;49.400;8.682;2022-07-23T00:17:03;6.38;;;4.47;;
60098;SDS011;45976;49.400;8.682;2022-07-23T00:18:07;6.97;;;4.82;;
60098;SDS011;45976;49.400;8.682;2022-07-23T00:19:07;5.75;;;4.53;;
60098;SDS011;45976;49.400;8.682;2022-07-23T00:20:08;5.75;;;4.72;;
60098;SDS011;45976;49.400;8.682;2022-07-23T00:21:09;6.65;;;4.57;;
60098;SDS011;45976;49.400;8.682;2022-07-23T00:22:11;13.88;;;4.38;;
60098;SDS011;45976;49.400;8.682;2022-07-23T00:23:12;10.52;;;4.43;;
60098;SDS011;45976;49.400;8.682;2022-07-23T00:24:13;7.38;;;4.88;;
60098;SDS011;45976;49.400;8.682;2022-07-23T00:25:14;8.68;;;4.63;;
60098;SDS011;45976;49.400;8.682;2022-07-23T00:26:15;6.60;;;4.72;;
60098;SDS011;45976;49.400;8.682;2022-07-23T00:27:15;9.65;;;4.82;;
60098;SDS011;45976;49.400;8.682;2022-07-23T00:28:16;5.75;;;4.50;;
60098;SDS011;45976;49.400;8.682;2022-07-23T00:29:18;9.10;;;4.50;;
60098;SDS011;45976;49.400;8.682;2022-07-23T00:30:19;7.03;;;4.38;;
60098;SDS011;45976;49.400;8.682;2022-07-23T00:31:21;6.57;;;4.68;;
60098;SDS011;45976;49.400;8.682;2022-07-23T00:32:21;8.57;;;5.13;;
60098;SDS011;45976;49.400;8.682;2022-07-23T00:33:23;5.45;;;4.55;;
60098;SDS011;45976;49.400;8.682;2022-07-23T00:34:24;7.80;;;4.72;;
60098;SDS011;45976;49.400;8.682;2022-07-23T00:35:25;7.80;;;4.50;;
60098;SDS011;45976;49.400;8.682;2022-07-23T00:36:30;6.00;;;4.28;;
60098;SDS011;45976;49.400;8.682;2022-07-23T00:37:33;5.82;;;3.97;;
60098;SDS011;45976;49.400;8.682;2022-07-23T00:38:34;8.07;;;5.38;;
60098;SDS011;45976;49.400;8.682;2022-07-23T00:39:36;10.45;;;4.88;;
60098;SDS011;45976;49.400;8.682;2022-07-23T00:40:37;7.07;;;4.78;;
60098;SDS011;45976;49.400;8.682;2022-07-23T00:41:38;7.82;;;4.78;;
60098;SDS011;45976;49.400;8.682;2022-07-23T00:42:40;13.98;;;5.55;;
60098;SDS011;45976;49.400;8.682;2022-07-23T00:43:40;10.27;;;5.38;;
60098;SDS011;45976;49.400;8.682;2022-07-23T00:44:41;9.45;;;5.88;;
60098;SDS011;45976;49.400;8.682;2022-07-23T00:45:43;11.10;;;5.95;;
60098;SDS011;45976;49.400;8.682;2022-07-23T00:46:45;9.20;;;5.85;;
60098;SDS011;45976;49.400;8.682;2022-07-23T00:47:53;8.18;;;5.50;;
60098;SDS011;45976;49.400;8.682;2022-07-23T00:48:54;15.15;;;6.10;;
60098;SDS011;45976;49.400;8.682;2022-07-23T00:49:55;14.18;;;6.38;;
60098;SDS011;45976;49.400;8.682;2022-07-23T00:50:56;12.52;;;5.60;;
60098;SDS011;45976;49.400;8.682;2022-07-23T00:51:57;11.95;;;5.97;;
60098;SDS011;45976;49.400;8.682;2022-07-23T00:53:03;15.43;;;6.00;;
60098;SDS011;45976;49.400;8.682;2022-07-23T00:54:04;9.27;;;5.75;;
60098;SDS011;45976;49.400;8.682;2022-07-23T00:55:05;13.77;;;5.65;;
60098;SDS011;45976;49.400;8.682;2022-07-23T00:56:10;11.13;;;5.50;;
60098;SDS011;45976;49.400;8.682;2022-07-23T00:57:12;13.40;;;5.70;;
60098;SDS011;45976;49.400;8.682;2022-07-23T00:58:14;9.07;;;6.03;;
60098;SDS011;45976;49.400;8.682;2022-07-23T00:59:18;10.30;;;6.07;;
60098;SDS011;45976;49.400;8.682;2022-07-23T01:00:19;9.13;;;6.20;;
60098;SDS011;45976;49.400;8.682;2022-07-23T01:01:21;8.02;;;5.93;;
60098;SDS011;45976;49.400;8.682;2022-07-23T01:02:21;9.88;;;5.45;;
60098;SDS011;45976;49.400;8.682;2022-07-23T01:03:22;10.98;;;5.38;;
60098;SDS011;45976;49.400;8.682;2022-07-23T01:04:26;6.70;;;5.03;;
60098;SDS011;45976;49.400;8.682;2022-07-23T01:05:26;8.43;;;4.90;;
60098;SDS011;45976;49.400;8.682;2022-07-23T01:06:28;8.10;;;4.97;;
60098;SDS011;45976;49.400;8.682;2022-07-23T01:07:28;9.13;;;4.90;;
60098;SDS011;45976;49.400;8.682;2022-07-23T01:08:30;11.45;;;5.35;;
60098;SDS011;45976;49.400;8.682;2022-07-23T01:09:31;8.60;;;5.05;;
60098;SDS011;45976;49.400;8.682;2022-07-23T01:10:32;9.55;;;5.78;;
60098;SDS011;45976;49.400;8.682;2022-07-23T01:11:36;9.65;;;5.32;;
60098;SDS011;45976;49.400;8.682;2022-07-23T01:12:37;8.30;;;4.85;;
60098;SDS011;45976;49.400;8.682;2022-07-23T01:13:42;5.57;;;4.93;;
60098;SDS011;45976;49.400;8.682;2022-07-23T01:14:44;8.35;;;5.57;;
60098;SDS011;45976;49.400;8.682;2022-07-23T01:15:45;8.07;;;4.82;;
60098;SDS011;45976;49.400;8.682;2022-07-23T01:16:46;9.02;;;5.80;;
60098;SDS011;45976;49.400;8.682;2022-07-23T01:17:49;7.18;;;4.80;;
60098;SDS011;45976;49.400;8.682;2022-07-23T01:18:50;6.05;;;4.75;;
60098;SDS011;45976;49.400;8.682;2022-07-23T01:19:51;8.73;;;4.77;;
60098;SDS011;45976;49.400;8.682;2022-07-23T01:20:52;15.95;;;5.90;;
60098;SDS011;45976;49.400;8.682;2022-07-23T01:21:53;6.93;;;4.90;;
60098;SDS011;45976;49.400;8.682;2022-07-23T01:22:56;8.93;;;5.25;;
60098;SDS011;45976;49.400;8.682;2022-07-23T01:23:57;6.90;;;5.05;;
60098;SDS011;45976;49.400;8.682;2022-07-23T01:24:58;9.63;;;5.20;;
60098;SDS011;45976;49.400;8.682;2022-07-23T01:25:59;6.87;;;4.97;;
60098;SDS011;45976;49.400;8.682;2022-07-23T01:26:59;8.07;;;4.77;;
60098;SDS011;45976;49.400;8.682;2022-07-23T01:28:00;6.00;;;4.80;;
60098;SDS011;45976;49.400;8.682;2022-07-23T01:29:01;7.33;;;4.50;;
60098;SDS011;45976;49.400;8.682;2022-07-23T01:30:02;10.30;;;5.18;;
60098;SDS011;45976;49.400;8.682;2022-07-23T01:31:04;6.68;;;5.13;;
60098;SDS011;45976;49.400;8.682;2022-07-23T01:32:05;9.77;;;5.15;;
60098;SDS011;45976;49.400;8.682;2022-07-23T01:33:06;6.60;;;4.63;;
60098;SDS011;45976;49.400;8.682;2022-07-23T01:35:09;6.68;;;4.47;;
60098;SDS011;45976;49.400;8.682;2022-07-23T01:36:10;6.63;;;4.53;;
60098;SDS011;45976;49.400;8.682;2022-07-23T01:37:11;9.70;;;5.33;;
60098;SDS011;45976;49.400;8.682;2022-07-23T01:38:11;9.52;;;4.93;;
60098;SDS011;45976;49.400;8.682;2022-07-23T01:39:12;6.60;;;5.03;;
60098;SDS011;45976;49.400;8.682;2022-07-23T01:40:13;5.80;;;4.55;;
60098;SDS011;45976;49.400;8.682;2022-07-23T01:41:13;10.05;;;5.50;;
60098;SDS011;45976;49.400;8.682;2022-07-23T01:42:14;10.25;;;5.18;;
60098;SDS011;45976;49.400;8.682;2022-07-23T01:43:15;13.80;;;5.17;;
60098;SDS011;45976;49.400;8.682;2022-07-23T01:44:16;9.95;;;5.07;;
60098;SDS011;45976;49.400;8.682;2022-07-23T01:45:16;7.80;;;4.50;;
60098;SDS011;45976;49.400;8.682;2022-07-23T01:46:17;8.50;;;5.35;;
60098;SDS011;45976;49.400;8.682;2022-07-23T01:47:18;9.32;;;5.32;;
60098;SDS011;45976;49.400;8.682;2022-07-23T01:48:19;9.27;;;5.25;;
60098;SDS011;45976;49.400;8.682;2022-07-23T01:49:19;6.82;;;5.22;;
60098;SDS011;45976;49.400;8.682;2022-07-23T01:50:26;5.40;;;4.57;;
60098;SDS011;45976;49.400;8.682;2022-07-23T01:51:27;7.47;;;5.30;;
60098;SDS011;45976;49.400;8.682;2022-07-23T01:52:27;10.73;;;4.97;;
60098;SDS011;45976;49.400;8.682;2022-07-23T01:53:28;9.70;;;5.30;;
60098;SDS011;45976;49.400;8.682;2022-07-23T01:54:32;7.57;;;4.50;;
60098;SDS011;45976;49.400;8.682;2022-07-23T01:55:34;7.60;;;5.03;;
60098;SDS011;45976;49.400;8.682;2022-07-23T01:56:34;8.40;;;4.90;;
60098;SDS011;45976;49.400;8.682;2022-07-23T01:57:35;8.03;;;4.97;;
60098;SDS011;45976;49.400;8.682;2022-07-23T01:58:36;9.75;;;5.40;;
60098;SDS011;45976;49.400;8.682;2022-07-23T01:59:36;8.77;;;5.18;;
60098;SDS011;45976;49.400;8.682;2022-07-23T02:00:39;10.65;;;5.18;;
60098;SDS011;45976;49.400;8.682;2022-07-23T02:01:39;9.80;;;4.63;;
60098;SDS011;45976;49.400;8.682;2022-07-23T02:02:41;10.73;;;4.43;;
60098;SDS011;45976;49.400;8.682;2022-07-23T02:03:43;7.57;;;4.47;;
60098;SDS011;45976;49.400;8.682;2022-07-23T02:04:44;8.05;;;5.13;;
60098;SDS011;45976;49.400;8.682;2022-07-23T02:05:44;6.88;;;4.75;;
60098;SDS011;45976;49.400;8.682;2022-07-23T02:06:45;9.10;;;5.03;;
60098;SDS011;45976;49.400;8.682;2022-07-23T02:07:46;9.23;;;4.53;;
60098;SDS011;45976;49.400;8.682;2022-07-23T02:08:47;11.20;;;5.03;;
60098;SDS011;45976;49.400;8.682;2022-07-23T02:09:47;8.47;;;4.73;;
60098;SDS011;45976;49.400;8.682;2022-07-23T02:10:48;9.53;;;5.03;;
60098;SDS011;45976;49.400;8.682;2022-07-23T02:11:51;7.80;;;5.25;;
60098;SDS011;45976;49.400;8.682;2022-07-23T02:12:51;7.13;;;4.78;;
60098;SDS011;45976;49.400;8.682;2022-07-23T02:13:52;9.90;;;4.68;;
60098;SDS011;45976;49.400;8.682;2022-07-23T02:14:53;14.52;;;4.50;;
60098;SDS011;45976;49.400;8.682;2022-07-23T02:15:53;9.20;;;4.70;;
60098;SDS011;45976;49.400;8.682;2022-07-23T02:16:54;7.53;;;5.00;;
60098;SDS011;45976;49.400;8.682;2022-07-23T02:17:55;11.90;;;4.68;;
60098;SDS011;45976;49.400;8.682;2022-07-23T02:18:56;6.30;;;4.35;;
60098;SDS011;45976;49.400;8.682;2022-07-23T02:19:57;12.10;;;5.10;;
60098;SDS011;45976;49.400;8.682;2022-07-23T02:20:57;11.00;;;4.75;;
60098;SDS011;45976;49.400;8.682;2022-07-23T02:21:58;7.15;;;4.60;;
60098;SDS011;45976;49.400;8.682;2022-07-23T02:22:59;11.27;;;4.40;;
60098;SDS011;45976;49.400;8.682;2022-07-23T02:23:59;7.83;;;4.50;;
60098;SDS011;45976;49.400;8.682;2022-07-23T02:25:00;7.43;;;4.10;;
60098;SDS011;45976;49.400;8.682;2022-07-23T02:26:00;9.93;;;5.00;;
60098;SDS011;45976;49.400;8.682;2022-07-23T02:27:01;5.30;;;4.43;;
60098;SDS011;45976;49.400;8.682;2022-07-23T02:28:02;9.03;;;4.70;;
60098;SDS011;45976;49.400;8.682;2022-07-23T02:29:03;8.68;;;4.72;;
60098;SDS011;45976;49.400;8.682;2022-07-23T02:31:05;7.22;;;4.55;;
60098;SDS011;45976;49.400;8.682;2022-07-23T02:32:06;11.15;;;4.53;;
60098;SDS011;45976;49.400;8.682;2022-07-23T02:33:07;11.00;;;4.68;;
60098;SDS011;45976;49.400;8.682;2022-07-23T02:34:07;5.28;;;4.30;;
60098;SDS011;45976;49.400;8.682;2022-07-23T02:35:11;6.97;;;4.85;;
60098;SDS011;45976;49.400;8.682;2022-07-23T02:36:12;10.07;;;3.95;;
60098;SDS011;45976;49.400;8.682;2022-07-23T02:37:12;7.27;;;4.87;;
60098;SDS011;45976;49.400;8.682;2022-07-23T02:38:14;8.43;;;4.50;;
60098;SDS011;45976;49.400;8.682;2022-07-23T02:39:15;8.32;;;4.38;;
60098;SDS011;45976;49.400;8.682;2022-07-23T02:40:15;7.30;;;4.67;;
60098;SDS011;45976;49.400;8.682;2022-07-23T02:41:16;10.38;;;4.65;;
60098;SDS011;45976;49.400;8.682;2022-07-23T02:42:17;7.88;;;4.63;;
60098;SDS011;45976;49.400;8.682;2022-07-23T02:43:18;5.53;;;3.72;;
60098;SDS011;45976;49.400;8.682;2022-07-23T02:44:18;6.70;;;4.60;;
60098;SDS011;45976;49.400;8.682;2022-07-23T02:45:19;7.35;;;4.25;;
60098;SDS011;45976;49.400;8.682;2022-07-23T02:46:20;5.00;;;4.17;;
60098;SDS011;45976;49.400;8.682;2022-07-23T02:47:20;7.23;;;4.30;;
60098;SDS011;45976;49.400;8.682;2022-07-23T02:48:21;7.10;;;4.20;;
60098;SDS011;45976;49.400;8.682;2022-07-23T02:49:22;9.90;;;4.53;;
60098;SDS011;45976;49.400;8.682;2022-07-23T02:50:23;5.47;;;4.35;;
60098;SDS011;45976;49.400;8.682;2022-07-23T02:51:23;10.98;;;4.47;;
60098;SDS011;45976;49.400;8.682;2022-07-23T02:52:25;7.78;;;4.40;;
60098;SDS011;45976;49.400;8.682;2022-07-23T02:53:26;5.30;;;4.77;;
60098;SDS011;45976;49.400;8.682;2022-07-23T02:54:26;10.50;;;4.25;;
60098;SDS011;45976;49.400;8.682;2022-07-23T02:55:27;11.43;;;4.22;;
60098;SDS011;45976;49.400;8.682;2022-07-23T02:56:28;5.10;;;3.93;;
60098;SDS011;45976;49.400;8.682;2022-07-23T02:57:28;12.87;;;4.20;;
60098;SDS011;45976;49.400;8.682;2022-07-23T02:58:29;9.25;;;4.05;;
60098;SDS011;45976;49.400;8.682;2022-07-23T02:59:30;8.93;;;4.67;;
60098;SDS011;45976;49.400;8.682;2022-07-23T03:00:31;7.13;;;4.93;;
60098;SDS011;45976;49.400;8.682;2022-07-23T03:01:31;6.03;;;3.95;;
60098;SDS011;45976;49.400;8.682;2022-07-23T03:02:32;9.13;;;4.78;;
60098;SDS011;45976;49.400;8.682;2022-07-23T03:03:33;12.18;;;4.45;;
60098;SDS011;45976;49.400;8.682;2022-07-23T03:04:34;6.43;;;3.83;;
60098;SDS011;45976;49.400;8.682;2022-07-23T03:05:34;6.57;;;4.30;;
60098;SDS011;45976;49.400;8.682;2022-07-23T03:06:35;5.45;;;4.10;;
60098;SDS011;45976;49.400;8.682;2022-07-23T03:07:36;4.28;;;3.72;;
60098;SDS011;45976;49.400;8.682;2022-07-23T03:08:37;5.17;;;3.83;;
60098;SDS011;45976;49.400;8.682;2022-07-23T03:09:37;5.60;;;4.23;;
60098;SDS011;45976;49.400;8.682;2022-07-23T03:10:38;6.67;;;4.20;;
60098;SDS011;45976;49.400;8.682;2022-07-23T03:11:38;5.50;;;4.50;;
60098;SDS011;45976;49.400;8.682;2022-07-23T03:12:39;11.40;;;4.57;;
60098;SDS011;45976;49.400;8.682;2022-07-23T03:13:40;6.28;;;4.60;;
60098;SDS011;45976;49.400;8.682;2022-07-23T03:14:41;6.78;;;3.90;;
60098;SDS011;45976;49.400;8.682;2022-07-23T03:15:42;5.65;;;3.70;;
60098;SDS011;45976;49.400;8.682;2022-07-23T03:16:43;6.17;;;3.87;;
60098;SDS011;45976;49.400;8.682;2022-07-23T03:17:43;7.85;;;3.92;;
60098;SDS011;45976;49.400;8.682;2022-07-23T03:18:45;5.55;;;4.25;;
60098;SDS011;45976;49.400;8.682;2022-07-23T03:19:45;8.83;;;4.20;;
60098;SDS011;45976;49.400;8.682;2022-07-23T03:20:46;7.53;;;4.30;;
60098;SDS011;45976;49.400;8.682;2022-07-23T03:21:46;8.90;;;4.37;;
60098;SDS011;45976;49.400;8.682;2022-07-23T03:22:47;5.53;;;4.23;;
60098;SDS011;45976;49.400;8.682;2022-07-23T03:23:47;6.87;;;4.20;;
60098;SDS011;45976;49.400;8.682;2022-07-23T03:24:48;6.53;;;3.90;;
60098;SDS011;45976;49.400;8.682;2022-07-23T03:25:54;7.20;;;4.22;;
60098;SDS011;45976;49.400;8.682;2022-07-23T03:26:55;6.90;;;4.38;;
60098;SDS011;45976;49.400;8.682;2022-07-23T03:27:56;7.13;;;4.63;;
60098;SDS011;45976;49.400;8.682;2022-07-23T03:28:57;11.23;;;4.28;;
60098;SDS011;45976;49.400;8.682;2022-07-23T03:29:58;7.95;;;4.07;;
60098;SDS011;45976;49.400;8.682;2022-07-23T03:30:59;7.18;;;3.97;;
60098;SDS011;45976;49.400;8.682;2022-07-23T03:32:00;7.70;;;4.18;;
60098;SDS011;45976;49.400;8.682;2022-07-23T03:34:02;12.70;;;4.13;;
60098;SDS011;45976;49.400;8.682;2022-07-23T03:35:03;6.18;;;4.10;;
60098;SDS011;45976;49.400;8.682;2022-07-23T03:36:04;6.53;;;3.72;;
60098;SDS011;45976;49.400;8.682;2022-07-23T03:37:05;12.02;;;4.30;;
60098;SDS011;45976;49.400;8.682;2022-07-23T03:38:06;5.10;;;3.67;;
60098;SDS011;45976;49.400;8.682;2022-07-23T03:39:06;5.83;;;4.30;;
60098;SDS011;45976;49.400;8.682;2022-07-23T03:40:07;7.05;;;4.13;;
60098;SDS011;45976;49.400;8.682;2022-07-23T03:41:08;11.05;;;4.13;;
60098;SDS011;45976;49.400;8.682;2022-07-23T03:42:09;4.60;;;4.00;;
60098;SDS011;45976;49.400;8.682;2022-07-23T03:43:10;6.88;;;4.45;;
60098;SDS011;45976;49.400;8.682;2022-07-23T03:44:11;6.80;;;3.90;;
60098;SDS011;45976;49.400;8.682;2022-07-23T03:45:11;7.17;;;3.40;;
60098;SDS011;45976;49.400;8.682;2022-07-23T03:46:12;4.72;;;3.58;;
60098;SDS011;45976;49.400;8.682;2022-07-23T03:47:13;9.20;;;4.20;;
60098;SDS011;45976;49.400;8.682;2022-07-23T03:48:14;6.97;;;3.95;;
60098;SDS011;45976;49.400;8.682;2022-07-23T03:49:14;5.13;;;4.03;;
60098;SDS011;45976;49.400;8.682;2022-07-23T03:50:15;8.15;;;5.05;;
60098;SDS011;45976;49.400;8.682;2022-07-23T03:51:15;5.07;;;3.87;;
60098;SDS011;45976;49.400;8.682;2022-07-23T03:52:16;5.47;;;3.87;;
60098;SDS011;45976;49.400;8.682;2022-07-23T03:53:17;5.55;;;4.13;;
60098;SDS011;45976;49.400;8.682;2022-07-23T03:54:17;5.30;;;4.20;;
60098;SDS011;45976;49.400;8.682;2022-07-23T03:55:18;5.83;;;4.10;;
60098;SDS011;45976;49.400;8.682;2022-07-23T03:56:18;7.20;;;4.63;;
60098;SDS011;45976;49.400;8.682;2022-07-23T03:57:19;7.05;;;3.97;;
60098;SDS011;45976;49.400;8.682;2022-07-23T03:58:20;5.23;;;4.33;;
60098;SDS011;45976;49.400;8.682;2022-07-23T03:59:20;8.70;;;4.47;;
60098;SDS011;45976;49.400;8.682;2022-07-23T04:00:22;5.97;;;4.25;;
60098;SDS011;45976;49.400;8.682;2022-07-23T04:01:22;8.23;;;4.30;;
60098;SDS011;45976;49.400;8.682;2022-07-23T04:02:23;5.07;;;4.23;;
60098;SDS011;45976;49.400;8.682;2022-07-23T04:03:25;5.05;;;4.22;;
60098;SDS011;45976;49.400;8.682;2022-07-23T04:04:25;9.07;;;4.13;;
60098;SDS011;45976;49.400;8.682;2022-07-23T04:05:26;5.28;;;4.00;;
60098;SDS011;45976;49.400;8.682;2022-07-23T04:06:26;6.80;;;4.45;;
60098;SDS011;45976;49.400;8.682;2022-07-23T04:07:28;6.70;;;4.38;;
60098;SDS011;45976;49.400;8.682;2022-07-23T04:08:28;7.32;;;3.85;;
60098;SDS011;45976;49.400;8.682;2022-07-23T04:09:29;10.17;;;4.30;;
60098;SDS011;45976;49.400;8.682;2022-07-23T04:10:30;5.40;;;4.20;;
60098;SDS011;45976;49.400;8.682;2022-07-23T04:11:30;4.85;;;3.63;;
60098;SDS011;45976;49.400;8.682;2022-07-23T04:12:31;6.80;;;4.40;;
60098;SDS011;45976;49.400;8.682;2022-07-23T04:13:32;7.17;;;3.90;;
60098;SDS011;45976;49.400;8.682;2022-07-23T04:14:32;7.30;;;4.37;;
60098;SDS011;45976;49.400;8.682;2022-07-23T04:15:33;10.00;;;4.35;;
60098;SDS011;45976;49.400;8.682;2022-07-23T04:16:34;8.17;;;4.20;;
60098;SDS011;45976;49.400;8.682;2022-07-23T04:17:34;6.63;;;4.30;;
60098;SDS011;45976;49.400;8.682;2022-07-23T04:18:35;6.40;;;4.47;;
60098;SDS011;45976;49.400;8.682;2022-07-23T04:19:35;7.33;;;4.07;;
60098;SDS011;45976;49.400;8.682;2022-07-23T04:20:39;5.20;;;4.28;;
60098;SDS011;45976;49.400;8.682;2022-07-23T04:21:40;7.47;;;3.93;;
60098;SDS011;45976;49.400;8.682;2022-07-23T04:22:40;9.13;;;4.47;;
60098;SDS011;45976;49.400;8.682;2022-07-23T04:23:41;6.40;;;4.25;;
60098;SDS011;45976;49.400;8.682;2022-07-23T04:24:42;8.23;;;3.42;;
60098;SDS011;45976;49.400;8.682;2022-07-23T04:25:43;10.00;;;4.90;;
60098;SDS011;45976;49.400;8.682;2022-07-23T04:26:43;7.33;;;3.80;;
60098;SDS011;45976;49.400;8.682;2022-07-23T04:27:45;6.00;;;4.55;;
60098;SDS011;45976;49.400;8.682;2022-07-23T04:28:46;10.52;;;4.55;;
60098;SDS011;45976;49.400;8.682;2022-07-23T04:29:47;9.02;;;4.38;;
60098;SDS011;45976;49.400;8.682;2022-07-23T04:30:47;7.53;;;4.30;;
60098;SDS011;45976;49.400;8.682;2022-07-23T04:31:48;8.30;;;4.87;;
60098;SDS011;45976;49.400;8.682;2022-07-23T04:32:49;6.25;;;4.80;;
60098;SDS011;45976;49.400;8.682;2022-07-23T04:33:49;7.50;;;4.50;;
60098;SDS011;45976;49.400;8.682;2022-07-23T04:34:50;7.33;;;4.83;;
60098;SDS011;45976;49.400;8.682;2022-07-23T04:35:51;5.80;;;4.50;;
60098;SDS011;45976;49.400;8.682;2022-07-23T04:36:52;10.68;;;4.47;;
60098;SDS011;45976;49.400;8.682;2022-07-23T04:37:53;9.18;;;4.57;;
60098;SDS011;45976;49.400;8.682;2022-07-23T04:38:54;6.73;;;4.83;;
60098;SDS011;45976;49.400;8.682;2022-07-23T04:39:55;11.32;;;4.63;;
60098;SDS011;45976;49.400;8.682;2022-07-23T04:40:55;6.57;;;4.57;;
60098;SDS011;45976;49.400;8.682;2022-07-23T04:41:56;6.77;;;4.67;;
60098;SDS011;45976;49.400;8.682;2022-07-23T04:42:57;6.97;;;4.90;;
60098;SDS011;45976;49.400;8.682;2022-07-23T04:43:57;11.18;;;4.90;;
60098;SDS011;45976;49.400;8.682;2022-07-23T04:44:58;6.87;;;4.20;;
60098;SDS011;45976;49.400;8.682;2022-07-23T04:45:59;6.40;;;4.53;;
60098;SDS011;45976;49.400;8.682;2022-07-23T04:46:59;8.17;;;4.67;;
60098;SDS011;45976;49.400;8.682;2022-07-23T04:48:00;6.10;;;4.60;;
60098;SDS011;45976;49.400;8.682;2022-07-23T04:49:01;7.35;;;4.45;;
60098;SDS011;45976;49.400;8.682;2022-07-23T04:50:01;7.30;;;5.13;;
60098;SDS011;45976;49.400;8.682;2022-07-23T04:51:02;7.43;;;5.30;;
60098;SDS011;45976;49.400;8.682;2022-07-23T04:52:03;12.35;;;5.22;;
60098;SDS011;45976;49.400;8.682;2022-07-23T04:53:04;5.57;;;4.17;;
60098;SDS011;45976;49.400;8.682;2022-07-23T04:54:05;9.05;;;5.03;;
60098;SDS011;45976;49.400;8.682;2022-07-23T04:55:06;7.40;;;4.90;;
60098;SDS011;45976;49.400;8.682;2022-07-23T04:56:07;7.32;;;4.38;;
60098;SDS011;45976;49.400;8.682;2022-07-23T04:57:07;7.20;;;4.93;;
60098;SDS011;45976;49.400;8.682;2022-07-23T04:58:08;8.37;;;4.57;;
60098;SDS011;45976;49.400;8.682;2022-07-23T04:59:09;6.80;;;4.13;;
60098;SDS011;45976;49.400;8.682;2022-07-23T05:00:09;12.53;;;5.30;;
60098;SDS011;45976;49.400;8.682;2022-07-23T05:01:11;7.85;;;5.10;;
60098;SDS011;45976;49.400;8.682;2022-07-23T05:02:11;5.07;;;4.23;;
60098;SDS011;45976;49.400;8.682;2022-07-23T05:03:12;8.00;;;4.63;;
60098;SDS011;45976;49.400;8.682;2022-07-23T05:04:13;5.57;;;4.73;;
60098;SDS011;45976;49.400;8.682;2022-07-23T05:05:13;6.00;;;4.70;;
60098;SDS011;45976;49.400;8.682;2022-07-23T05:06:14;6.20;;;4.97;;
60098;SDS011;45976;49.400;8.682;2022-07-23T05:07:16;6.28;;;4.97;;
60098;SDS011;45976;49.400;8.682;2022-07-23T05:08:16;6.97;;;4.43;;
60098;SDS011;45976;49.400;8.682;2022-07-23T05:09:17;6.43;;;4.60;;
60098;SDS011;45976;49.400;8.682;2022-07-23T05:10:18;7.37;;;5.00;;
60098;SDS011;45976;49.400;8.682;2022-07-23T05:11:18;7.60;;;5.22;;
60098;SDS011;45976;49.400;8.682;2022-07-23T05:12:19;10.40;;;4.73;;
60098;SDS011;45976;49.400;8.682;2022-07-23T05:13:19;7.47;;;4.90;;
60098;SDS011;45976;49.400;8.682;2022-07-23T05:14:20;7.35;;;4.82;;
60098;SDS011;45976;49.400;8.682;2022-07-23T05:15:21;6.57;;;5.17;;
60098;SDS011;45976;49.400;8.682;2022-07-23T05:16:22;9.38;;;5.00;;
60098;SDS011;45976;49.400;8.682;2022-07-23T05:17:22;9.75;;;5.22;;
60098;SDS011;45976;49.400;8.682;2022-07-23T05:18:23;8.60;;;4.67;;
60098;SDS011;45976;49.400;8.682;2022-07-23T05:19:24;6.30;;;4.70;;
60098;SDS011;45976;49.400;8.682;2022-07-23T05:20:24;7.13;;;4.93;;
60098;SDS011;45976;49.400;8.682;2022-07-23T05:21:25;9.63;;;5.00;;
60098;SDS011;45976;49.400;8.682;2022-07-23T05:22:26;8.57;;;5.13;;
60098;SDS011;45976;49.400;8.682;2022-07-23T05:23:27;9.85;;;5.65;;
60098;SDS011;45976;49.400;8.682;2022-07-23T05:24:28;7.40;;;5.77;;
60098;SDS011;45976;49.400;8.682;2022-07-23T05:25:28;7.47;;;4.97;;
60098;SDS011;45976;49.400;8.682;2022-07-23T05:26:29;7.82;;;5.18;;
60098;SDS011;45976;49.400;8.682;2022-07-23T05:27:30;11.82;;;5.30;;
60098;SDS011;45976;49.400;8.682;2022-07-23T05:28:30;8.20;;;5.60;;
60098;SDS011;45976;49.400;8.682;2022-07-23T05:29:31;7.47;;;5.90;;
60098;SDS011;45976;49.400;8.682;2022-07-23T05:30:32;6.60;;;5.30;;
60098;SDS011;45976;49.400;8.682;2022-07-23T05:31:33;11.53;;;5.93;;
60098;SDS011;45976;49.400;8.682;2022-07-23T05:32:34;6.90;;;5.68;;
60098;SDS011;45976;49.400;8.682;2022-07-23T05:33:36;7.18;;;5.22;;
60098;SDS011;45976;49.400;8.682;2022-07-23T05:34:40;8.38;;;5.70;;
60098;SDS011;45976;49.400;8.682;2022-07-23T05:35:40;6.60;;;5.78;;
60098;SDS011;45976;49.400;8.682;2022-07-23T05:36:41;6.30;;;5.67;;
60098;SDS011;45976;49.400;8.682;2022-07-23T05:37:42;8.02;;;6.05;;
60098;SDS011;45976;49.400;8.682;2022-07-23T05:38:43;9.70;;;5.68;;
60098;SDS011;45976;49.400;8.682;2022-07-23T05:39:44;6.95;;;6.13;;
60098;SDS011;45976;49.400;8.682;2022-07-23T05:40:45;6.87;;;5.40;;
60098;SDS011;45976;49.400;8.682;2022-07-23T05:41:46;9.97;;;6.03;;
60098;SDS011;45976;49.400;8.682;2022-07-23T05:42:46;8.45;;;5.88;;
60098;SDS011;45976;49.400;8.682;2022-07-23T05:43:47;10.47;;;5.90;;
60098;SDS011;45976;49.400;8.682;2022-07-23T05:44:48;7.13;;;6.10;;
60098;SDS011;45976;49.400;8.682;2022-07-23T05:45:48;7.40;;;6.00;;
60098;SDS011;45976;49.400;8.682;2022-07-23T05:46:50;9.73;;;5.93;;
60098;SDS011;45976;49.400;8.682;2022-07-23T05:47:50;7.50;;;6.05;;
60098;SDS011;45976;49.400;8.682;2022-07-23T05:48:51;9.67;;;5.87;;
60098;SDS011;45976;49.400;8.682;2022-07-23T05:49:55;8.20;;;5.80;;
60098;SDS011;45976;49.400;8.682;2022-07-23T05:50:55;10.03;;;6.13;;
60098;SDS011;45976;49.400;8.682;2022-07-23T05:51:56;7.70;;;5.90;;
60098;SDS011;45976;49.400;8.682;2022-07-23T05:52:56;6.53;;;5.30;;
60098;SDS011;45976;49.400;8.682;2022-07-23T05:53:57;8.63;;;6.15;;
60098;SDS011;45976;49.400;8.682;2022-07-23T05:54:58;6.93;;;6.23;;
60098;SDS011;45976;49.400;8.682;2022-07-23T05:55:58;13.50;;;6.03;;
60098;SDS011;45976;49.400;8.682;2022-07-23T05:56:59;12.77;;;6.28;;
60098;SDS011;45976;49.400;8.682;2022-07-23T05:58:00;11.40;;;6.23;;
60098;SDS011;45976;49.400;8.682;2022-07-23T05:59:00;7.97;;;5.57;;
60098;SDS011;45976;49.400;8.682;2022-07-23T06:00:03;8.73;;;5.73;;
60098;SDS011;45976;49.400;8.682;2022-07-23T06:01:06;6.40;;;5.05;;
60098;SDS011;45976;49.400;8.682;2022-07-23T06:02:07;6.82;;;5.28;;
60098;SDS011;45976;49.400;8.682;2022-07-23T06:03:07;9.33;;;5.60;;
60098;SDS011;45976;49.400;8.682;2022-07-23T06:04:08;10.07;;;5.23;;
60098;SDS011;45976;49.400;8.682;2022-07-23T06:05:08;7.05;;;5.10;;
60098;SDS011;45976;49.400;8.682;2022-07-23T06:06:09;7.22;;;5.85;;
60098;SDS011;45976;49.400;8.682;2022-07-23T06:07:10;5.77;;;4.97;;
60098;SDS011;45976;49.400;8.682;2022-07-23T06:08:10;6.73;;;5.87;;
60098;SDS011;45976;49.400;8.682;2022-07-23T06:09:11;10.75;;;5.50;;
60098;SDS011;45976;49.400;8.682;2022-07-23T06:10:13;7.65;;;5.63;;
60098;SDS011;45976;49.400;8.682;2022-07-23T06:11:14;6.68;;;5.07;;